Aérodrome :
LOGIN :

S'inscrire | Disclaimer

   EN    FR    IT 

 










Légende :    VFR   VFR Marginal   IFR   IFR Intensif   IFR Très Intensif
Visi : 
Plafond : 
>= 8 km
>= 3000ft
5 à 8 km
1000 à 3000 ft
1500m à 5 km
500 à 1000 ft
800 à 1500m
200 à 500 ft
< 800m
< 200 ft
Symboles :   Orages  Brouillard  Fortes neiges  Fortes précipitations  Vent > 20 kt
SIGMETs :   Divers  Orages  Givrage  Turbulence  Onde Orograph.  Cendres Volcan.






- Altitude de l'aérodrome : 17 ft
- Code IATA : MPL


LFMT - Montpellier Méditerranée

DERNIER METAR :
  • 021300Z AUTO 01006KT 9999 BKN048 OVC066 09/03 Q1015 NOSIG

METARs EXPIRÉS :
  • 021230Z AUTO 02007KT 9999 BKN048 BKN058 OVC068 09/02 Q1016 NOSIG
  • 021200Z AUTO 02007KT 9999 BKN046 OVC056 09/02 Q1016 NOSIG
  • 021130Z AUTO 01009KT 9999 BKN048 OVC054 09/02 Q1017 NOSIG
  • 021100Z AUTO 01008KT CAVOK 09/02 Q1017 NOSIG

TAF TAF LFMT
Valide du 02 à 09h jusqu'au 03 à 09h UTC


020800Z 0209/0309 34010KT CAVOK
BECMG 0213/0215 BKN040
BECMG 0217/0219 BKN020 FEW030TCU BKN060
TEMPO 0219/0309 SHRA BKN014 SCT025CB BKN040
ATIS : +33 4 67 13 11 70



MET'MAP, la Météo Aéronautique d'un coup d'oeil ! - Copyright ORBIFLY Décembre 2007 - Disclaimer

ORBIFLY MET'MAP TEAM :

Programmation & Développement : Alexandra Zaïnal
Sur une idée originale de : Baudouin d'Aumeries
Soutien technique & logistique : Manuel Goepfert
Assistance : Marc-Olivier Méhu




SOURCES & CREDITS :

   NOAA